sensor_id;sensor_type;location;lat;lon;timestamp;pressure;altitude;pressure_sealevel;temperature;humidity
13952;BME280;39535;52.192;9.886;2023-08-12T00:02:12;100693.09;;;21.82;81.75
13952;BME280;39535;52.192;9.886;2023-08-12T00:04:39;100697.94;;;21.90;81.18
13952;BME280;39535;52.192;9.886;2023-08-12T00:07:05;100701.47;;;21.90;81.08
13952;BME280;39535;52.192;9.886;2023-08-12T00:09:32;100704.75;;;21.94;80.91
13952;BME280;39535;52.192;9.886;2023-08-12T00:11:58;100713.50;;;21.96;80.46
13952;BME280;39535;52.192;9.886;2023-08-12T00:14:26;100711.59;;;21.98;80.73
13952;BME280;39535;52.192;9.886;2023-08-12T00:16:52;100702.97;;;21.94;80.96
13952;BME280;39535;52.192;9.886;2023-08-12T00:19:19;100708.47;;;21.91;80.57
13952;BME280;39535;52.192;9.886;2023-08-12T00:21:45;100710.28;;;21.91;80.69
13952;BME280;39535;52.192;9.886;2023-08-12T00:24:12;100709.69;;;21.86;80.54
13952;BME280;39535;52.192;9.886;2023-08-12T00:30:02;100708.19;;;21.81;80.89
13952;BME280;39535;52.192;9.886;2023-08-12T00:32:29;100699.75;;;21.75;81.05
13952;BME280;39535;52.192;9.886;2023-08-12T00:34:56;100697.34;;;21.70;81.25
13952;BME280;39535;52.192;9.886;2023-08-12T00:37:22;100681.91;;;21.63;81.96
13952;BME280;39535;52.192;9.886;2023-08-12T00:39:49;100675.16;;;21.57;82.50
13952;BME280;39535;52.192;9.886;2023-08-12T00:42:15;100669.72;;;21.58;82.71
13952;BME280;39535;52.192;9.886;2023-08-12T00:44:42;100653.78;;;21.58;82.97
13952;BME280;39535;52.192;9.886;2023-08-12T00:47:10;100649.34;;;21.59;82.95
13952;BME280;39535;52.192;9.886;2023-08-12T00:49:36;100652.84;;;21.59;82.82
13952;BME280;39535;52.192;9.886;2023-08-12T00:52:06;100646.69;;;21.59;83.10
13952;BME280;39535;52.192;9.886;2023-08-12T00:54:32;100639.00;;;21.54;83.66
13952;BME280;39535;52.192;9.886;2023-08-12T00:56:59;100616.59;;;21.44;84.43
13952;BME280;39535;52.192;9.886;2023-08-12T00:59:26;100607.19;;;21.38;84.65
13952;BME280;39535;52.192;9.886;2023-08-12T01:01:52;100603.31;;;21.30;84.99
13952;BME280;39535;52.192;9.886;2023-08-12T01:04:20;100597.91;;;21.31;84.50
13952;BME280;39535;52.192;9.886;2023-08-12T01:06:47;100607.31;;;21.37;84.32
13952;BME280;39535;52.192;9.886;2023-08-12T01:09:13;100605.41;;;21.39;83.91
13952;BME280;39535;52.192;9.886;2023-08-12T01:11:44;100614.97;;;21.41;83.61
13952;BME280;39535;52.192;9.886;2023-08-12T01:14:18;100615.91;;;21.40;83.91
13952;BME280;39535;52.192;9.886;2023-08-12T01:16:51;100607.00;;;21.41;83.92
13952;BME280;39535;52.192;9.886;2023-08-12T01:19:29;100612.25;;;21.43;83.69
13952;BME280;39535;52.192;9.886;2023-08-12T01:22:00;100610.50;;;21.42;83.51
13952;BME280;39535;52.192;9.886;2023-08-12T01:24:33;100607.84;;;21.42;83.57
13952;BME280;39535;52.192;9.886;2023-08-12T01:27:00;100607.09;;;21.40;83.80
13952;BME280;39535;52.192;9.886;2023-08-12T01:29:27;100606.41;;;21.36;83.77
13952;BME280;39535;52.192;9.886;2023-08-12T01:31:56;100601.88;;;21.38;84.29
13952;BME280;39535;52.192;9.886;2023-08-12T01:34:29;100590.31;;;21.39;84.39
13952;BME280;39535;52.192;9.886;2023-08-12T01:37:02;100584.91;;;21.41;84.37
13952;BME280;39535;52.192;9.886;2023-08-12T01:39:33;100584.25;;;21.37;84.18
13952;BME280;39535;52.192;9.886;2023-08-12T01:42:02;100580.63;;;21.38;84.15
13952;BME280;39535;52.192;9.886;2023-08-12T01:44:29;100572.66;;;21.38;84.31
13952;BME280;39535;52.192;9.886;2023-08-12T01:46:55;100566.41;;;21.39;84.58
13952;BME280;39535;52.192;9.886;2023-08-12T01:49:22;100562.78;;;21.40;84.30
13952;BME280;39535;52.192;9.886;2023-08-12T01:51:50;100568.97;;;21.41;84.33
13952;BME280;39535;52.192;9.886;2023-08-12T01:54:16;100563.00;;;21.37;84.64
13952;BME280;39535;52.192;9.886;2023-08-12T01:56:44;100559.59;;;21.35;85.02
13952;BME280;39535;52.192;9.886;2023-08-12T01:59:10;100550.66;;;21.36;85.34
13952;BME280;39535;52.192;9.886;2023-08-12T02:01:37;100542.22;;;21.30;85.70
13952;BME280;39535;52.192;9.886;2023-08-12T02:04:03;100541.56;;;21.26;85.63
13952;BME280;39535;52.192;9.886;2023-08-12T02:06:30;100545.34;;;21.22;85.54
13952;BME280;39535;52.192;9.886;2023-08-12T02:08:56;100537.22;;;21.25;85.57
13952;BME280;39535;52.192;9.886;2023-08-12T02:11:23;100536.47;;;21.23;85.49
13952;BME280;39535;52.192;9.886;2023-08-12T02:13:51;100550.75;;;21.20;85.18
13952;BME280;39535;52.192;9.886;2023-08-12T02:16:17;100528.97;;;21.15;86.17
13952;BME280;39535;52.192;9.886;2023-08-12T02:18:44;100525.34;;;21.16;85.92
13952;BME280;39535;52.192;9.886;2023-08-12T02:21:10;100531.63;;;21.15;85.69
13952;BME280;39535;52.192;9.886;2023-08-12T02:23:37;100524.50;;;21.16;85.40
13952;BME280;39535;52.192;9.886;2023-08-12T02:26:03;100523.75;;;21.14;85.65
13952;BME280;39535;52.192;9.886;2023-08-12T02:28:29;100515.94;;;21.11;85.90
13952;BME280;39535;52.192;9.886;2023-08-12T02:30:57;100513.22;;;21.12;85.89
13952;BME280;39535;52.192;9.886;2023-08-12T02:33:24;100524.66;;;21.13;85.81
13952;BME280;39535;52.192;9.886;2023-08-12T02:35:53;100511.53;;;21.11;86.04
13952;BME280;39535;52.192;9.886;2023-08-12T02:38:19;100506.22;;;21.11;86.27
13952;BME280;39535;52.192;9.886;2023-08-12T02:40:47;100504.31;;;21.13;86.15
13952;BME280;39535;52.192;9.886;2023-08-12T02:43:14;100501.66;;;21.13;86.60
13952;BME280;39535;52.192;9.886;2023-08-12T02:45:40;100495.84;;;21.07;86.83
13952;BME280;39535;52.192;9.886;2023-08-12T02:48:09;100543.34;;;20.97;84.24
13952;BME280;39535;52.192;9.886;2023-08-12T02:50:36;100633.00;;;20.92;79.43
13952;BME280;39535;52.192;9.886;2023-08-12T02:53:03;100674.75;;;21.04;79.24
13952;BME280;39535;52.192;9.886;2023-08-12T02:55:29;100702.03;;;21.06;78.98
13952;BME280;39535;52.192;9.886;2023-08-12T02:57:57;100682.41;;;20.78;81.20
13952;BME280;39535;52.192;9.886;2023-08-12T03:00:23;100634.28;;;20.22;85.20
13952;BME280;39535;52.192;9.886;2023-08-12T03:02:50;100543.94;;;19.95;88.49
13952;BME280;39535;52.192;9.886;2023-08-12T03:05:18;100493.59;;;19.95;89.75
13952;BME280;39535;52.192;9.886;2023-08-12T03:07:45;100491.13;;;20.08;89.38
13952;BME280;39535;52.192;9.886;2023-08-12T03:10:11;100482.06;;;20.27;89.01
13952;BME280;39535;52.192;9.886;2023-08-12T03:12:38;100496.31;;;20.40;88.59
13952;BME280;39535;52.192;9.886;2023-08-12T03:15:06;100491.97;;;20.53;88.34
13952;BME280;39535;52.192;9.886;2023-08-12T03:17:33;100509.19;;;20.62;87.50
13952;BME280;39535;52.192;9.886;2023-08-12T03:20:00;100513.16;;;20.69;87.47
13952;BME280;39535;52.192;9.886;2023-08-12T03:22:28;100529.66;;;20.74;86.85
13952;BME280;39535;52.192;9.886;2023-08-12T03:24:54;100543.69;;;20.76;85.78
13952;BME280;39535;52.192;9.886;2023-08-12T03:27:21;100543.31;;;20.82;86.00
13952;BME280;39535;52.192;9.886;2023-08-12T03:29:47;100534.69;;;20.79;87.94
13952;BME280;39535;52.192;9.886;2023-08-12T03:32:14;100528.38;;;20.81;88.15
13952;BME280;39535;52.192;9.886;2023-08-12T03:34:40;100533.38;;;20.86;86.78
13952;BME280;39535;52.192;9.886;2023-08-12T03:37:07;100538.38;;;20.76;86.98
13952;BME280;39535;52.192;9.886;2023-08-12T03:39:35;100538.38;;;20.76;87.22
13952;BME280;39535;52.192;9.886;2023-08-12T03:42:01;100581.84;;;20.59;84.12
13952;BME280;39535;52.192;9.886;2023-08-12T03:44:28;100602.44;;;20.70;83.67
13952;BME280;39535;52.192;9.886;2023-08-12T03:46:54;100606.69;;;20.73;84.10
13952;BME280;39535;52.192;9.886;2023-08-12T03:49:21;100638.09;;;20.80;83.49
13952;BME280;39535;52.192;9.886;2023-08-12T03:51:47;100618.97;;;20.90;83.74
13952;BME280;39535;52.192;9.886;2023-08-12T03:54:14;100630.34;;;20.92;83.38
13952;BME280;39535;52.192;9.886;2023-08-12T03:56:41;100648.66;;;20.96;82.68
13952;BME280;39535;52.192;9.886;2023-08-12T03:59:08;100650.91;;;20.88;83.31
13952;BME280;39535;52.192;9.886;2023-08-12T04:01:34;100632.50;;;20.85;83.96
13952;BME280;39535;52.192;9.886;2023-08-12T04:04:01;100626.75;;;20.62;84.62
13952;BME280;39535;52.192;9.886;2023-08-12T04:06:27;100607.34;;;20.62;85.22
13952;BME280;39535;52.192;9.886;2023-08-12T04:08:54;100609.13;;;20.61;85.00
13952;BME280;39535;52.192;9.886;2023-08-12T04:11:20;100599.69;;;20.56;85.96
13952;BME280;39535;52.192;9.886;2023-08-12T04:13:48;100573.63;;;20.64;86.81
13952;BME280;39535;52.192;9.886;2023-08-12T04:16:15;100543.31;;;20.68;88.49
13952;BME280;39535;52.192;9.886;2023-08-12T04:18:41;100546.34;;;20.76;87.43
13952;BME280;39535;52.192;9.886;2023-08-12T04:21:08;100559.03;;;20.55;86.26
13952;BME280;39535;52.192;9.886;2023-08-12T04:23:34;100566.25;;;20.53;86.81
13952;BME280;39535;52.192;9.886;2023-08-12T04:26:01;100550.91;;;20.58;87.74
13952;BME280;39535;52.192;9.886;2023-08-12T04:28:27;100544.16;;;20.69;88.49
13952;BME280;39535;52.192;9.886;2023-08-12T04:30:55;100519.06;;;20.74;89.43
13952;BME280;39535;52.192;9.886;2023-08-12T04:33:23;100505.72;;;20.76;90.13
13952;BME280;39535;52.192;9.886;2023-08-12T04:35:49;100503.72;;;20.79;90.56
13952;BME280;39535;52.192;9.886;2023-08-12T04:38:16;100500.03;;;20.82;90.83
13952;BME280;39535;52.192;9.886;2023-08-12T04:40:43;100500.78;;;20.84;90.88
13952;BME280;39535;52.192;9.886;2023-08-12T04:43:09;100493.88;;;20.81;91.15
13952;BME280;39535;52.192;9.886;2023-08-12T04:45:36;100493.75;;;20.83;91.48
13952;BME280;39535;52.192;9.886;2023-08-12T04:48:06;100484.19;;;20.80;92.60
13952;BME280;39535;52.192;9.886;2023-08-12T04:50:33;100462.41;;;20.75;93.59
13952;BME280;39535;52.192;9.886;2023-08-12T04:53:00;100447.59;;;20.71;94.72
13952;BME280;39535;52.192;9.886;2023-08-12T04:55:27;100416.44;;;20.60;96.93
13952;BME280;39535;52.192;9.886;2023-08-12T04:57:53;100387.41;;;20.43;99.20
13952;BME280;39535;52.192;9.886;2023-08-12T05:00:20;100341.41;;;20.30;100.00
13952;BME280;39535;52.192;9.886;2023-08-12T05:02:47;100348.31;;;20.32;100.00
13952;BME280;39535;52.192;9.886;2023-08-12T05:05:15;100352.56;;;20.35;100.00
13952;BME280;39535;52.192;9.886;2023-08-12T05:07:41;100352.66;;;20.33;100.00
13952;BME280;39535;52.192;9.886;2023-08-12T05:10:09;100349.38;;;20.30;100.00
13952;BME280;39535;52.192;9.886;2023-08-12T05:12:36;100358.16;;;20.30;100.00
13952;BME280;39535;52.192;9.886;2023-08-12T05:15:03;100366.97;;;20.31;100.00
13952;BME280;39535;52.192;9.886;2023-08-12T05:17:29;100355.69;;;20.27;100.00
13952;BME280;39535;52.192;9.886;2023-08-12T05:19:56;100349.72;;;20.23;100.00
13952;BME280;39535;52.192;9.886;2023-08-12T05:22:24;100370.44;;;20.31;100.00
13952;BME280;39535;52.192;9.886;2023-08-12T05:24:50;100386.09;;;20.36;100.00
13952;BME280;39535;52.192;9.886;2023-08-12T05:27:17;100398.31;;;20.38;100.00
13952;BME280;39535;52.192;9.886;2023-08-12T05:29:43;100409.31;;;20.47;100.00
13952;BME280;39535;52.192;9.886;2023-08-12T05:32:10;100405.50;;;20.51;100.00
13952;BME280;39535;52.192;9.886;2023-08-12T05:34:36;100418.84;;;20.49;100.00
13952;BME280;39535;52.192;9.886;2023-08-12T05:37:03;100404.75;;;20.49;100.00
13952;BME280;39535;52.192;9.886;2023-08-12T05:39:31;100405.34;;;20.54;100.00
13952;BME280;39535;52.192;9.886;2023-08-12T05:41:57;100401.81;;;20.53;100.00
13952;BME280;39535;52.192;9.886;2023-08-12T05:44:24;100397.03;;;20.60;100.00
13952;BME280;39535;52.192;9.886;2023-08-12T05:46:50;100397.97;;;20.59;100.00
13952;BME280;39535;52.192;9.886;2023-08-12T05:49:17;100397.78;;;20.62;100.00
13952;BME280;39535;52.192;9.886;2023-08-12T05:51:43;100405.47;;;20.67;100.00
13952;BME280;39535;52.192;9.886;2023-08-12T05:54:10;100412.38;;;20.69;100.00
13952;BME280;39535;52.192;9.886;2023-08-12T05:56:37;100395.69;;;20.67;100.00
13952;BME280;39535;52.192;9.886;2023-08-12T05:59:04;100399.31;;;20.66;100.00
13952;BME280;39535;52.192;9.886;2023-08-12T06:01:31;100429.91;;;20.27;100.00
13952;BME280;39535;52.192;9.886;2023-08-12T06:03:57;100385.44;;;20.32;100.00
13952;BME280;39535;52.192;9.886;2023-08-12T06:06:24;100382.88;;;20.45;100.00
13952;BME280;39535;52.192;9.886;2023-08-12T06:08:50;100385.81;;;20.55;100.00
13952;BME280;39535;52.192;9.886;2023-08-12T06:11:17;100385.47;;;20.61;100.00
13952;BME280;39535;52.192;9.886;2023-08-12T06:13:45;100421.13;;;20.55;100.00
13952;BME280;39535;52.192;9.886;2023-08-12T06:16:11;100389.94;;;20.60;100.00
13952;BME280;39535;52.192;9.886;2023-08-12T06:18:37;100370.50;;;20.60;100.00
13952;BME280;39535;52.192;9.886;2023-08-12T06:21:04;100373.72;;;20.65;100.00
13952;BME280;39535;52.192;9.886;2023-08-12T06:23:31;100385.84;;;20.69;100.00
13952;BME280;39535;52.192;9.886;2023-08-12T06:25:57;100376.38;;;20.65;100.00
13952;BME280;39535;52.192;9.886;2023-08-12T06:28:24;100350.66;;;20.51;100.00
13952;BME280;39535;52.192;9.886;2023-08-12T06:30:51;100353.06;;;20.56;100.00
13952;BME280;39535;52.192;9.886;2023-08-12T06:33:18;100353.63;;;20.61;100.00
13952;BME280;39535;52.192;9.886;2023-08-12T06:35:45;100351.25;;;20.56;100.00
13952;BME280;39535;52.192;9.886;2023-08-12T06:38:11;100358.63;;;20.51;100.00
13952;BME280;39535;52.192;9.886;2023-08-12T06:40:38;100349.66;;;20.54;100.00
13952;BME280;39535;52.192;9.886;2023-08-12T06:43:05;100357.41;;;20.57;100.00
13952;BME280;39535;52.192;9.886;2023-08-12T06:45:32;100368.53;;;20.63;100.00
13952;BME280;39535;52.192;9.886;2023-08-12T06:48:00;100369.16;;;20.67;100.00
13952;BME280;39535;52.192;9.886;2023-08-12T06:50:28;100384.59;;;20.75;100.00
13952;BME280;39535;52.192;9.886;2023-08-12T06:52:55;100396.47;;;20.83;100.00
13952;BME280;39535;52.192;9.886;2023-08-12T06:55:22;100405.09;;;20.87;100.00
13952;BME280;39535;52.192;9.886;2023-08-12T06:57:48;100416.91;;;20.96;100.00
13952;BME280;39535;52.192;9.886;2023-08-12T07:00:15;100427.25;;;21.00;100.00
13952;BME280;39535;52.192;9.886;2023-08-12T07:02:42;100427.44;;;21.12;100.00
13952;BME280;39535;52.192;9.886;2023-08-12T07:05:09;100402.78;;;21.10;100.00
13952;BME280;39535;52.192;9.886;2023-08-12T07:07:36;100408.53;;;21.16;100.00
13952;BME280;39535;52.192;9.886;2023-08-12T07:10:06;100421.31;;;21.24;100.00
13952;BME280;39535;52.192;9.886;2023-08-12T07:12:33;100432.31;;;21.32;100.00
13952;BME280;39535;52.192;9.886;2023-08-12T07:15:00;100452.00;;;21.42;100.00
13952;BME280;39535;52.192;9.886;2023-08-12T07:17:26;100448.72;;;21.39;100.00
13952;BME280;39535;52.192;9.886;2023-08-12T07:19:53;100480.22;;;21.45;100.00
13952;BME280;39535;52.192;9.886;2023-08-12T07:22:21;100476.22;;;21.52;100.00
13952;BME280;39535;52.192;9.886;2023-08-12T07:24:47;100467.47;;;21.50;100.00
13952;BME280;39535;52.192;9.886;2023-08-12T07:27:14;100478.78;;;21.54;100.00
13952;BME280;39535;52.192;9.886;2023-08-12T07:29:40;100487.00;;;21.64;100.00
13952;BME280;39535;52.192;9.886;2023-08-12T07:32:07;100487.34;;;21.72;100.00
13952;BME280;39535;52.192;9.886;2023-08-12T07:34:33;100481.75;;;21.76;100.00
13952;BME280;39535;52.192;9.886;2023-08-12T07:37:00;100472.16;;;21.74;100.00
13952;BME280;39535;52.192;9.886;2023-08-12T07:39:28;100459.94;;;21.71;100.00
13952;BME280;39535;52.192;9.886;2023-08-12T07:41:54;100458.78;;;21.75;100.00
13952;BME280;39535;52.192;9.886;2023-08-12T07:44:20;100473.56;;;21.79;100.00
13952;BME280;39535;52.192;9.886;2023-08-12T07:46:47;100482.88;;;21.87;100.00
13952;BME280;39535;52.192;9.886;2023-08-12T07:49:15;100480.56;;;21.95;100.00
13952;BME280;39535;52.192;9.886;2023-08-12T07:51:42;100498.44;;;22.06;100.00
13952;BME280;39535;52.192;9.886;2023-08-12T07:54:09;100487.53;;;22.10;100.00
13952;BME280;39535;52.192;9.886;2023-08-12T07:56:37;100489.00;;;22.14;100.00
13952;BME280;39535;52.192;9.886;2023-08-12T07:59:04;100487.00;;;22.18;100.00
13952;BME280;39535;52.192;9.886;2023-08-12T08:01:30;100484.34;;;22.18;100.00
13952;BME280;39535;52.192;9.886;2023-08-12T08:03:57;100484.63;;;22.00;100.00
13952;BME280;39535;52.192;9.886;2023-08-12T08:06:23;100474.31;;;22.09;100.00
13952;BME280;39535;52.192;9.886;2023-08-12T08:08:50;100489.00;;;22.14;100.00
13952;BME280;39535;52.192;9.886;2023-08-12T08:11:16;100488.03;;;22.15;100.00
13952;BME280;39535;52.192;9.886;2023-08-12T08:13:44;100487.75;;;22.20;100.00
13952;BME280;39535;52.192;9.886;2023-08-12T08:16:10;100490.19;;;22.23;100.00
13952;BME280;39535;52.192;9.886;2023-08-12T08:18:37;100482.22;;;22.23;100.00
13952;BME280;39535;52.192;9.886;2023-08-12T08:21:03;100487.84;;;22.18;99.69
13952;BME280;39535;52.192;9.886;2023-08-12T08:23:30;100486.22;;;22.16;100.00
13952;BME280;39535;52.192;9.886;2023-08-12T08:25:56;100491.69;;;22.14;99.05
13952;BME280;39535;52.192;9.886;2023-08-12T08:28:23;100503.91;;;22.17;98.38
13952;BME280;39535;52.192;9.886;2023-08-12T08:30:51;100494.09;;;22.17;98.86
13952;BME280;39535;52.192;9.886;2023-08-12T08:33:18;100488.59;;;22.20;99.03
13952;BME280;39535;52.192;9.886;2023-08-12T08:35:45;100483.28;;;22.20;99.26
13952;BME280;39535;52.192;9.886;2023-08-12T08:38:12;100478.91;;;22.19;99.73
13952;BME280;39535;52.192;9.886;2023-08-12T08:40:39;100450.06;;;22.13;100.00
13952;BME280;39535;52.192;9.886;2023-08-12T08:43:07;100447.31;;;22.15;100.00
13952;BME280;39535;52.192;9.886;2023-08-12T08:45:34;100433.28;;;22.13;100.00
13952;BME280;39535;52.192;9.886;2023-08-12T08:48:03;100446.34;;;22.16;100.00
13952;BME280;39535;52.192;9.886;2023-08-12T08:50:31;100449.78;;;22.18;100.00
13952;BME280;39535;52.192;9.886;2023-08-12T08:53:00;100462.75;;;22.23;100.00
13952;BME280;39535;52.192;9.886;2023-08-12T08:55:28;100451.66;;;22.03;100.00
13952;BME280;39535;52.192;9.886;2023-08-12T08:57:56;100437.28;;;21.93;100.00
13952;BME280;39535;52.192;9.886;2023-08-12T09:00:23;100452.06;;;21.97;100.00
13952;BME280;39535;52.192;9.886;2023-08-12T09:02:50;100442.09;;;22.00;100.00
13952;BME280;39535;52.192;9.886;2023-08-12T09:05:19;100433.69;;;22.07;100.00
13952;BME280;39535;52.192;9.886;2023-08-12T09:07:47;100434.22;;;22.12;100.00
13952;BME280;39535;52.192;9.886;2023-08-12T09:10:17;100442.56;;;22.20;100.00
13952;BME280;39535;52.192;9.886;2023-08-12T09:12:44;100426.97;;;22.28;100.00
13952;BME280;39535;52.192;9.886;2023-08-12T09:15:12;100431.53;;;22.39;100.00
13952;BME280;39535;52.192;9.886;2023-08-12T09:17:50;100429.50;;;22.55;100.00
13952;BME280;39535;52.192;9.886;2023-08-12T09:20:30;100456.88;;;22.70;98.61
13952;BME280;39535;52.192;9.886;2023-08-12T09:22:57;100467.50;;;22.83;97.88
13952;BME280;39535;52.192;9.886;2023-08-12T09:25:25;100481.66;;;22.96;96.18
13952;BME280;39535;52.192;9.886;2023-08-12T09:27:54;100496.28;;;23.04;95.57
13952;BME280;39535;52.192;9.886;2023-08-12T09:30:21;100523.63;;;23.18;93.87
13952;BME280;39535;52.192;9.886;2023-08-12T09:32:58;100577.56;;;23.35;91.31
13952;BME280;39535;52.192;9.886;2023-08-12T09:35:33;100555.03;;;23.52;92.41
13952;BME280;39535;52.192;9.886;2023-08-12T09:38:02;100569.19;;;23.65;90.50
13952;BME280;39535;52.192;9.886;2023-08-12T09:40:30;100580.88;;;23.75;89.59
13952;BME280;39535;52.192;9.886;2023-08-12T09:42:58;100502.31;;;23.81;93.94
13952;BME280;39535;52.192;9.886;2023-08-12T09:45:26;100495.34;;;23.91;92.84
13952;BME280;39535;52.192;9.886;2023-08-12T09:47:54;100567.97;;;23.95;88.39
13952;BME280;39535;52.192;9.886;2023-08-12T09:57:42;100549.56;;;24.27;89.42
13952;BME280;39535;52.192;9.886;2023-08-12T10:00:10;100650.75;;;24.17;83.05
13952;BME280;39535;52.192;9.886;2023-08-12T10:02:39;100679.25;;;24.17;83.27
13952;BME280;39535;52.192;9.886;2023-08-12T10:05:07;100642.25;;;24.12;85.83
13952;BME280;39535;52.192;9.886;2023-08-12T10:07:37;100625.19;;;24.15;86.75
13952;BME280;39535;52.192;9.886;2023-08-12T10:10:05;100673.19;;;24.02;83.70
13952;BME280;39535;52.192;9.886;2023-08-12T10:12:33;100717.50;;;23.92;82.60
13952;BME280;39535;52.192;9.886;2023-08-12T10:15:01;100711.72;;;23.72;83.41
13952;BME280;39535;52.192;9.886;2023-08-12T10:17:28;100657.22;;;23.76;86.49
13952;BME280;39535;52.192;9.886;2023-08-12T10:19:56;100626.78;;;23.81;87.20
13952;BME280;39535;52.192;9.886;2023-08-12T10:22:23;100563.63;;;23.81;90.06
13952;BME280;39535;52.192;9.886;2023-08-12T10:24:50;100525.56;;;23.79;91.02
13952;BME280;39535;52.192;9.886;2023-08-12T10:27:19;100512.00;;;23.82;91.51
13952;BME280;39535;52.192;9.886;2023-08-12T10:29:46;100501.22;;;23.84;92.30
13952;BME280;39535;52.192;9.886;2023-08-12T10:32:14;100491.69;;;23.92;91.86
13952;BME280;39535;52.192;9.886;2023-08-12T10:34:41;100490.38;;;23.98;92.42
13952;BME280;39535;52.192;9.886;2023-08-12T10:37:10;100483.94;;;23.89;93.06
13952;BME280;39535;52.192;9.886;2023-08-12T10:39:37;100520.13;;;23.81;89.57
13952;BME280;39535;52.192;9.886;2023-08-12T10:42:04;100519.16;;;23.82;92.01
13952;BME280;39535;52.192;9.886;2023-08-12T10:44:39;100502.50;;;23.91;90.19
13952;BME280;39535;52.192;9.886;2023-08-12T10:47:08;100487.34;;;23.91;91.96
13952;BME280;39535;52.192;9.886;2023-08-12T10:49:39;100501.69;;;23.77;90.65
13952;BME280;39535;52.192;9.886;2023-08-12T10:52:25;100513.38;;;23.88;89.46
13952;BME280;39535;52.192;9.886;2023-08-12T10:54:52;100499.25;;;23.98;90.53
13952;BME280;39535;52.192;9.886;2023-08-12T10:57:34;100503.44;;;24.14;89.42
13952;BME280;39535;52.192;9.886;2023-08-12T11:00:04;100509.66;;;24.26;88.59
13952;BME280;39535;52.192;9.886;2023-08-12T11:02:33;100556.72;;;24.27;86.31
13952;BME280;39535;52.192;9.886;2023-08-12T11:05:03;100545.50;;;24.46;87.23
13952;BME280;39535;52.192;9.886;2023-08-12T11:07:38;100559.78;;;24.57;86.15
13952;BME280;39535;52.192;9.886;2023-08-12T11:10:11;100583.59;;;24.61;85.12
13952;BME280;39535;52.192;9.886;2023-08-12T11:12:39;100535.94;;;24.78;87.72
13952;BME280;39535;52.192;9.886;2023-08-12T11:15:07;100480.03;;;25.00;90.14
13952;BME280;39535;52.192;9.886;2023-08-12T11:17:35;100535.38;;;24.97;83.32
13952;BME280;39535;52.192;9.886;2023-08-12T11:20:04;100562.84;;;25.22;85.93
13952;BME280;39535;52.192;9.886;2023-08-12T11:22:32;100579.09;;;25.19;82.87
13952;BME280;39535;52.192;9.886;2023-08-12T11:25:02;100659.88;;;25.23;80.20
13952;BME280;39535;52.192;9.886;2023-08-12T11:27:36;100700.94;;;25.22;78.81
13952;BME280;39535;52.192;9.886;2023-08-12T11:30:04;100710.34;;;25.14;78.95
13952;BME280;39535;52.192;9.886;2023-08-12T11:32:31;100701.56;;;25.01;78.93
13952;BME280;39535;52.192;9.886;2023-08-12T11:34:58;100704.06;;;25.15;77.81
13952;BME280;39535;52.192;9.886;2023-08-12T11:37:26;100718.47;;;25.37;76.01
13952;BME280;39535;52.192;9.886;2023-08-12T11:39:52;100756.75;;;26.41;74.73
13952;BME280;39535;52.192;9.886;2023-08-12T11:42:19;100885.16;;;27.42;68.41
13952;BME280;39535;52.192;9.886;2023-08-12T11:44:45;100956.19;;;27.91;67.29
13952;BME280;39535;52.192;9.886;2023-08-12T11:47:12;100993.91;;;28.74;65.53
13952;BME280;39535;52.192;9.886;2023-08-12T11:49:38;101057.09;;;28.47;64.03
13952;BME280;39535;52.192;9.886;2023-08-12T11:52:05;101067.56;;;27.74;65.89
13952;BME280;39535;52.192;9.886;2023-08-12T11:54:33;101016.88;;;27.49;67.57
13952;BME280;39535;52.192;9.886;2023-08-12T11:57:00;100978.28;;;27.06;68.44
13952;BME280;39535;52.192;9.886;2023-08-12T11:59:28;100929.69;;;26.66;69.52
13952;BME280;39535;52.192;9.886;2023-08-12T12:01:54;100856.03;;;26.49;72.34
13952;BME280;39535;52.192;9.886;2023-08-12T12:04:21;100810.16;;;26.31;72.94
13952;BME280;39535;52.192;9.886;2023-08-12T12:06:47;100772.69;;;26.20;74.16
13952;BME280;39535;52.192;9.886;2023-08-12T12:09:15;100750.91;;;25.90;75.11
13952;BME280;39535;52.192;9.886;2023-08-12T12:11:44;100729.56;;;25.66;75.24
13952;BME280;39535;52.192;9.886;2023-08-12T12:14:11;100669.31;;;25.73;75.90
13952;BME280;39535;52.192;9.886;2023-08-12T12:16:38;100667.59;;;25.84;75.31
13952;BME280;39535;52.192;9.886;2023-08-12T12:19:05;100669.94;;;26.00;75.79
13952;BME280;39535;52.192;9.886;2023-08-12T12:21:39;100672.38;;;25.91;75.87
13952;BME280;39535;52.192;9.886;2023-08-12T12:24:06;100662.88;;;25.87;76.17
13952;BME280;39535;52.192;9.886;2023-08-12T12:26:32;100653.13;;;25.86;75.72
13952;BME280;39535;52.192;9.886;2023-08-12T12:29:00;100659.56;;;25.84;75.65
13952;BME280;39535;52.192;9.886;2023-08-12T12:31:27;100663.84;;;25.75;74.52
13952;BME280;39535;52.192;9.886;2023-08-12T12:33:53;100661.41;;;25.72;75.32
13952;BME280;39535;52.192;9.886;2023-08-12T12:36:20;100638.69;;;25.77;76.78
13952;BME280;39535;52.192;9.886;2023-08-12T12:38:47;100615.56;;;25.76;77.25
13952;BME280;39535;52.192;9.886;2023-08-12T12:41:14;100584.69;;;25.72;77.57
13952;BME280;39535;52.192;9.886;2023-08-12T12:43:40;100579.13;;;25.64;77.95
13952;BME280;39535;52.192;9.886;2023-08-12T12:46:08;100562.47;;;25.61;79.18
13952;BME280;39535;52.192;9.886;2023-08-12T12:48:34;100529.66;;;25.59;79.71
13952;BME280;39535;52.192;9.886;2023-08-12T12:51:01;100534.91;;;25.49;79.70
13952;BME280;39535;52.192;9.886;2023-08-12T12:53:27;100536.38;;;25.42;79.20
13952;BME280;39535;52.192;9.886;2023-08-12T12:55:54;100484.03;;;25.39;82.99
13952;BME280;39535;52.192;9.886;2023-08-12T12:58:21;100470.56;;;25.29;81.58
13952;BME280;39535;52.192;9.886;2023-08-12T13:00:48;100466.88;;;25.19;83.39